sensor_id;sensor_type;location;lat;lon;timestamp;pressure;altitude;pressure_sealevel;temperature;humidity
42951;BME280;28592;51.064;17.192;2022-07-23T00:02:20;100211.14;;;19.56;100.00
42951;BME280;28592;51.064;17.192;2022-07-23T00:05:05;100214.41;;;19.52;100.00
42951;BME280;28592;51.064;17.192;2022-07-23T00:07:51;100208.58;;;19.48;100.00
42951;BME280;28592;51.064;17.192;2022-07-23T00:10:37;100204.05;;;19.49;100.00
42951;BME280;28592;51.064;17.192;2022-07-23T00:13:23;100214.15;;;19.47;100.00
42951;BME280;28592;51.064;17.192;2022-07-23T00:16:08;100218.84;;;19.38;100.00
42951;BME280;28592;51.064;17.192;2022-07-23T00:18:54;100214.52;;;19.23;100.00
42951;BME280;28592;51.064;17.192;2022-07-23T00:21:43;100215.33;;;19.23;100.00
42951;BME280;28592;51.064;17.192;2022-07-23T00:24:29;100219.05;;;19.22;100.00
42951;BME280;28592;51.064;17.192;2022-07-23T00:27:14;100217.40;;;19.21;100.00
42951;BME280;28592;51.064;17.192;2022-07-23T00:29:59;100211.76;;;19.16;100.00
42951;BME280;28592;51.064;17.192;2022-07-23T00:32:49;100215.48;;;19.15;100.00
42951;BME280;28592;51.064;17.192;2022-07-23T00:35:37;100213.98;;;19.12;100.00
42951;BME280;28592;51.064;17.192;2022-07-23T00:38:25;100218.93;;;19.09;100.00
42951;BME280;28592;51.064;17.192;2022-07-23T00:41:13;100218.93;;;19.09;100.00
42951;BME280;28592;51.064;17.192;2022-07-23T00:46:58;100229.14;;;18.99;100.00
42951;BME280;28592;51.064;17.192;2022-07-23T00:49:44;100227.86;;;18.95;100.00
42951;BME280;28592;51.064;17.192;2022-07-23T00:52:29;100228.86;;;18.94;100.00
42951;BME280;28592;51.064;17.192;2022-07-23T00:55:16;100228.24;;;18.92;100.00
42951;BME280;28592;51.064;17.192;2022-07-23T00:58:02;100230.28;;;18.90;100.00
42951;BME280;28592;51.064;17.192;2022-07-23T01:00:47;100225.75;;;18.90;100.00
42951;BME280;28592;51.064;17.192;2022-07-23T01:03:32;100220.76;;;18.87;100.00
42951;BME280;28592;51.064;17.192;2022-07-23T01:06:17;100232.45;;;18.80;100.00
42951;BME280;28592;51.064;17.192;2022-07-23T01:09:04;100237.44;;;18.83;100.00
42951;BME280;28592;51.064;17.192;2022-07-23T01:11:51;100241.88;;;18.76;100.00
42951;BME280;28592;51.064;17.192;2022-07-23T01:14:37;100239.19;;;18.76;100.00
42951;BME280;28592;51.064;17.192;2022-07-23T01:17:22;100235.32;;;18.78;100.00
42951;BME280;28592;51.064;17.192;2022-07-23T01:20:08;100225.39;;;18.79;100.00
42951;BME280;28592;51.064;17.192;2022-07-23T01:22:53;100228.08;;;18.79;100.00
42951;BME280;28592;51.064;17.192;2022-07-23T01:25:48;100216.06;;;18.75;100.00
42951;BME280;28592;51.064;17.192;2022-07-23T01:28:33;100229.11;;;18.78;100.00
42951;BME280;28592;51.064;17.192;2022-07-23T01:31:19;100234.75;;;18.83;100.00
42951;BME280;28592;51.064;17.192;2022-07-23T01:34:04;100230.38;;;18.82;100.00
42951;BME280;28592;51.064;17.192;2022-07-23T01:36:52;100226.89;;;18.81;100.00
42951;BME280;28592;51.064;17.192;2022-07-23T01:39:37;100229.77;;;18.80;100.00
42951;BME280;28592;51.064;17.192;2022-07-23T01:42:23;100226.42;;;18.78;100.00
42951;BME280;28592;51.064;17.192;2022-07-23T01:45:09;100220.21;;;18.77;100.00
42951;BME280;28592;51.064;17.192;2022-07-23T01:47:54;100218.75;;;18.75;100.00
42951;BME280;28592;51.064;17.192;2022-07-23T01:50:40;100219.78;;;18.74;100.00
42951;BME280;28592;51.064;17.192;2022-07-23T01:53:28;100218.94;;;18.73;100.00
42951;BME280;28592;51.064;17.192;2022-07-23T01:56:15;100217.28;;;18.72;100.00
42951;BME280;28592;51.064;17.192;2022-07-23T01:59:01;100220.16;;;18.71;100.00
42951;BME280;28592;51.064;17.192;2022-07-23T02:01:46;100227.83;;;18.74;100.00
42951;BME280;28592;51.064;17.192;2022-07-23T02:04:32;100229.67;;;18.73;100.00
42951;BME280;28592;51.064;17.192;2022-07-23T02:07:21;100226.14;;;18.73;100.00
42951;BME280;28592;51.064;17.192;2022-07-23T02:10:07;100215.55;;;18.65;100.00
42951;BME280;28592;51.064;17.192;2022-07-23T02:12:53;100210.80;;;18.67;100.00
42951;BME280;28592;51.064;17.192;2022-07-23T02:15:41;100216.30;;;18.59;100.00
42951;BME280;28592;51.064;17.192;2022-07-23T02:18:27;100226.66;;;18.62;100.00
42951;BME280;28592;51.064;17.192;2022-07-23T02:21:12;100208.95;;;18.67;100.00
42951;BME280;28592;51.064;17.192;2022-07-23T02:23:59;100206.19;;;18.61;100.00
42951;BME280;28592;51.064;17.192;2022-07-23T02:26:44;100202.69;;;18.60;100.00
42951;BME280;28592;51.064;17.192;2022-07-23T02:29:30;100210.17;;;18.65;100.00
42951;BME280;28592;51.064;17.192;2022-07-23T02:32:15;100201.28;;;18.64;100.00
42951;BME280;28592;51.064;17.192;2022-07-23T02:35:01;100212.30;;;18.55;100.00
42951;BME280;28592;51.064;17.192;2022-07-23T02:37:46;100209.63;;;18.55;100.00
42951;BME280;28592;51.064;17.192;2022-07-23T02:40:31;100216.30;;;18.59;100.00
42951;BME280;28592;51.064;17.192;2022-07-23T02:43:22;100206.75;;;18.56;100.00
42951;BME280;28592;51.064;17.192;2022-07-23T02:46:08;100200.38;;;18.57;100.00
42951;BME280;28592;51.064;17.192;2022-07-23T02:48:53;100196.86;;;18.57;100.00
42951;BME280;28592;51.064;17.192;2022-07-23T02:51:38;100198.59;;;18.64;100.00
42951;BME280;28592;51.064;17.192;2022-07-23T02:54:24;100196.10;;;18.63;100.00
42951;BME280;28592;51.064;17.192;2022-07-23T02:57:09;100198.78;;;18.63;100.00
42951;BME280;28592;51.064;17.192;2022-07-23T02:59:58;100191.77;;;18.62;100.00
42951;BME280;28592;51.064;17.192;2022-07-23T03:02:43;100187.21;;;18.62;100.00
42951;BME280;28592;51.064;17.192;2022-07-23T03:05:28;100198.59;;;18.64;100.00
42951;BME280;28592;51.064;17.192;2022-07-23T03:08:14;100206.84;;;18.63;100.00
42951;BME280;28592;51.064;17.192;2022-07-23T03:11:02;100198.97;;;18.61;100.00
42951;BME280;28592;51.064;17.192;2022-07-23T03:13:48;100192.77;;;18.61;100.00
42951;BME280;28592;51.064;17.192;2022-07-23T03:16:33;100202.74;;;18.67;100.00
42951;BME280;28592;51.064;17.192;2022-07-23T03:19:18;100200.25;;;18.65;100.00
42951;BME280;28592;51.064;17.192;2022-07-23T03:22:04;100215.41;;;18.73;100.00
42951;BME280;28592;51.064;17.192;2022-07-23T03:24:50;100214.22;;;18.75;100.00
42951;BME280;28592;51.064;17.192;2022-07-23T03:27:38;100209.85;;;18.74;100.00
42951;BME280;28592;51.064;17.192;2022-07-23T03:30:24;100211.02;;;18.86;100.00
42951;BME280;28592;51.064;17.192;2022-07-23T03:33:09;100208.41;;;18.93;100.00
42951;BME280;28592;51.064;17.192;2022-07-23T03:35:55;100208.11;;;19.02;100.00
42951;BME280;28592;51.064;17.192;2022-07-23T03:38:40;100202.81;;;19.09;100.00
42951;BME280;28592;51.064;17.192;2022-07-23T03:41:25;100200.82;;;19.17;100.00
42951;BME280;28592;51.064;17.192;2022-07-23T03:44:10;100214.94;;;19.26;100.00
42951;BME280;28592;51.064;17.192;2022-07-23T03:46:56;100208.76;;;19.26;100.00
42951;BME280;28592;51.064;17.192;2022-07-23T03:49:41;100206.92;;;19.47;100.00
42951;BME280;28592;51.064;17.192;2022-07-23T03:52:27;100214.21;;;19.53;100.00
42951;BME280;28592;51.064;17.192;2022-07-23T03:55:13;100221.11;;;19.62;100.00
42951;BME280;28592;51.064;17.192;2022-07-23T03:57:58;100224.92;;;19.74;100.00
42951;BME280;28592;51.064;17.192;2022-07-23T04:03:56;100218.30;;;20.04;100.00
42951;BME280;28592;51.064;17.192;2022-07-23T04:06:42;100212.28;;;20.02;100.00
42951;BME280;28592;51.064;17.192;2022-07-23T04:09:31;100215.34;;;20.20;100.00
42951;BME280;28592;51.064;17.192;2022-07-23T04:12:19;100216.14;;;20.55;100.00
42951;BME280;28592;51.064;17.192;2022-07-23T04:15:07;100209.10;;;20.54;100.00
42951;BME280;28592;51.064;17.192;2022-07-23T04:17:56;100210.65;;;20.82;100.00
42951;BME280;28592;51.064;17.192;2022-07-23T04:20:41;100209.80;;;20.82;100.00
42951;BME280;28592;51.064;17.192;2022-07-23T04:23:27;100196.97;;;20.90;100.00
42951;BME280;28592;51.064;17.192;2022-07-23T04:26:12;100191.23;;;21.00;100.00
42951;BME280;28592;51.064;17.192;2022-07-23T04:28:57;100193.36;;;21.18;100.00
42951;BME280;28592;51.064;17.192;2022-07-23T04:31:43;100194.39;;;21.23;100.00
42951;BME280;28592;51.064;17.192;2022-07-23T04:34:29;100193.36;;;21.31;100.00
42951;BME280;28592;51.064;17.192;2022-07-23T04:37:18;100189.01;;;21.30;100.00
42951;BME280;28592;51.064;17.192;2022-07-23T04:40:03;100178.85;;;21.45;100.00
42951;BME280;28592;51.064;17.192;2022-07-23T04:42:49;100180.95;;;21.82;100.00
42951;BME280;28592;51.064;17.192;2022-07-23T04:45:35;100174.23;;;22.10;100.00
42951;BME280;28592;51.064;17.192;2022-07-23T04:48:20;100164.98;;;22.44;100.00
42951;BME280;28592;51.064;17.192;2022-07-23T04:51:06;100172.24;;;22.43;100.00
42951;BME280;28592;51.064;17.192;2022-07-23T04:53:51;100149.18;;;22.92;100.00
42951;BME280;28592;51.064;17.192;2022-07-23T04:56:37;100151.05;;;22.91;100.00
42951;BME280;28592;51.064;17.192;2022-07-23T04:59:22;100149.46;;;23.39;100.00
42951;BME280;28592;51.064;17.192;2022-07-23T05:02:08;100149.45;;;23.64;100.00
42951;BME280;28592;51.064;17.192;2022-07-23T05:04:53;100147.22;;;23.79;100.00
42951;BME280;28592;51.064;17.192;2022-07-23T05:07:39;100143.70;;;23.78;100.00
42951;BME280;28592;51.064;17.192;2022-07-23T05:10:24;100143.43;;;24.04;100.00
42951;BME280;28592;51.064;17.192;2022-07-23T05:13:10;100142.63;;;24.04;100.00
42951;BME280;28592;51.064;17.192;2022-07-23T05:15:55;100138.63;;;24.06;100.00
42951;BME280;28592;51.064;17.192;2022-07-23T05:18:41;100135.63;;;23.96;100.00
42951;BME280;28592;51.064;17.192;2022-07-23T05:21:26;100115.09;;;24.07;100.00
42951;BME280;28592;51.064;17.192;2022-07-23T05:24:11;100113.66;;;24.23;100.00
42951;BME280;28592;51.064;17.192;2022-07-23T05:26:57;100110.12;;;24.22;100.00
42951;BME280;28592;51.064;17.192;2022-07-23T05:29:42;100103.07;;;24.51;98.43
42951;BME280;28592;51.064;17.192;2022-07-23T05:32:28;100098.72;;;24.50;98.53
42951;BME280;28592;51.064;17.192;2022-07-23T05:35:13;100091.08;;;24.58;96.16
42951;BME280;28592;51.064;17.192;2022-07-23T05:37:59;100086.73;;;24.57;96.14
42951;BME280;28592;51.064;17.192;2022-07-23T05:40:44;100088.14;;;24.60;95.44
42951;BME280;28592;51.064;17.192;2022-07-23T05:43:29;100079.80;;;24.32;95.61
42951;BME280;28592;51.064;17.192;2022-07-23T05:46:15;100075.38;;;24.67;94.07
42951;BME280;28592;51.064;17.192;2022-07-23T05:49:00;100069.73;;;24.68;96.20
42951;BME280;28592;51.064;17.192;2022-07-23T05:51:46;100074.31;;;24.68;96.36
42951;BME280;28592;51.064;17.192;2022-07-23T05:54:34;100070.92;;;24.84;93.53
42951;BME280;28592;51.064;17.192;2022-07-23T05:57:20;100072.27;;;25.16;91.73
42951;BME280;28592;51.064;17.192;2022-07-23T06:00:06;100072.27;;;25.16;91.91
42951;BME280;28592;51.064;17.192;2022-07-23T06:02:55;100073.70;;;25.30;89.50
42951;BME280;28592;51.064;17.192;2022-07-23T06:05:43;100082.00;;;25.35;90.77
42951;BME280;28592;51.064;17.192;2022-07-23T06:08:31;100074.94;;;25.34;90.95
42951;BME280;28592;51.064;17.192;2022-07-23T06:11:20;100078.48;;;25.46;91.83
42951;BME280;28592;51.064;17.192;2022-07-23T06:14:06;100080.11;;;25.47;91.73
42951;BME280;28592;51.064;17.192;2022-07-23T06:16:51;100096.28;;;25.76;87.95
42951;BME280;28592;51.064;17.192;2022-07-23T06:19:37;100104.52;;;25.81;90.14
42951;BME280;28592;51.064;17.192;2022-07-23T06:22:22;100109.94;;;25.81;89.61
42951;BME280;28592;51.064;17.192;2022-07-23T06:25:08;100114.68;;;25.74;89.88
42951;BME280;28592;51.064;17.192;2022-07-23T06:27:54;100108.41;;;25.74;89.96
42951;BME280;28592;51.064;17.192;2022-07-23T06:30:39;100119.98;;;25.35;89.06
42951;BME280;28592;51.064;17.192;2022-07-23T06:33:24;100109.91;;;25.12;91.67
42951;BME280;28592;51.064;17.192;2022-07-23T06:36:10;100106.36;;;25.12;91.78
42951;BME280;28592;51.064;17.192;2022-07-23T06:38:55;100107.09;;;25.30;89.96
42951;BME280;28592;51.064;17.192;2022-07-23T06:41:40;100100.86;;;25.64;88.87
42951;BME280;28592;51.064;17.192;2022-07-23T06:44:27;100096.90;;;26.30;88.03
42951;BME280;28592;51.064;17.192;2022-07-23T06:47:12;100096.06;;;26.29;87.95
42951;BME280;28592;51.064;17.192;2022-07-23T06:49:58;100088.59;;;26.36;87.18
42951;BME280;28592;51.064;17.192;2022-07-23T06:52:43;100086.77;;;26.81;83.34
42951;BME280;28592;51.064;17.192;2022-07-23T06:55:28;100080.74;;;26.79;83.17
42951;BME280;28592;51.064;17.192;2022-07-23T06:58:13;100078.38;;;26.99;83.47
42951;BME280;28592;51.064;17.192;2022-07-23T07:00:59;100073.03;;;26.88;82.54
42951;BME280;28592;51.064;17.192;2022-07-23T07:03:44;100068.09;;;27.18;82.72
42951;BME280;28592;51.064;17.192;2022-07-23T07:06:30;100065.13;;;27.36;81.42
42951;BME280;28592;51.064;17.192;2022-07-23T07:09:15;100065.67;;;27.21;82.70
42951;BME280;28592;51.064;17.192;2022-07-23T07:12:00;100055.88;;;27.20;82.81
42951;BME280;28592;51.064;17.192;2022-07-23T07:14:46;100067.08;;;27.57;82.35
42951;BME280;28592;51.064;17.192;2022-07-23T07:17:31;100068.04;;;27.68;81.29
42951;BME280;28592;51.064;17.192;2022-07-23T07:20:17;100071.78;;;28.00;79.93
42951;BME280;28592;51.064;17.192;2022-07-23T07:23:03;100059.24;;;27.99;80.11
42951;BME280;28592;51.064;17.192;2022-07-23T07:25:49;100065.72;;;28.62;77.37
42951;BME280;28592;51.064;17.192;2022-07-23T07:28:34;100061.78;;;28.80;76.68
42951;BME280;28592;51.064;17.192;2022-07-23T07:31:19;100056.56;;;28.73;75.54
42951;BME280;28592;51.064;17.192;2022-07-23T07:34:04;100056.56;;;28.73;76.65
42951;BME280;28592;51.064;17.192;2022-07-23T07:36:50;100057.03;;;28.97;76.27
42951;BME280;28592;51.064;17.192;2022-07-23T07:39:35;100052.67;;;29.28;73.88
42951;BME280;28592;51.064;17.192;2022-07-23T07:42:21;100053.92;;;29.52;74.23
42951;BME280;28592;51.064;17.192;2022-07-23T07:45:07;100045.99;;;29.50;73.96
42951;BME280;28592;51.064;17.192;2022-07-23T07:47:52;100055.66;;;29.63;74.58
42951;BME280;28592;51.064;17.192;2022-07-23T07:50:37;100052.46;;;29.02;74.91
42951;BME280;28592;51.064;17.192;2022-07-23T07:53:22;100043.44;;;29.02;75.09
42951;BME280;28592;51.064;17.192;2022-07-23T07:56:08;100044.05;;;28.77;76.35
42951;BME280;28592;51.064;17.192;2022-07-23T07:58:53;100047.89;;;29.08;74.57
42951;BME280;28592;51.064;17.192;2022-07-23T08:01:39;100036.69;;;29.93;75.01
42951;BME280;28592;51.064;17.192;2022-07-23T08:04:24;100036.69;;;29.93;75.22
42951;BME280;28592;51.064;17.192;2022-07-23T08:07:09;100037.95;;;29.65;75.77
42951;BME280;28592;51.064;17.192;2022-07-23T08:09:55;100035.95;;;29.61;75.57
42951;BME280;28592;51.064;17.192;2022-07-23T08:12:46;100036.45;;;29.99;73.72
42951;BME280;28592;51.064;17.192;2022-07-23T08:15:32;100034.81;;;29.98;73.52
42951;BME280;28592;51.064;17.192;2022-07-23T08:18:17;100035.45;;;30.20;73.06
42951;BME280;28592;51.064;17.192;2022-07-23T08:21:03;100041.91;;;29.99;72.22
42951;BME280;28592;51.064;17.192;2022-07-23T08:23:50;100036.45;;;29.99;72.04
42951;BME280;28592;51.064;17.192;2022-07-23T08:26:35;100042.77;;;29.58;73.57
42951;BME280;28592;51.064;17.192;2022-07-23T08:29:20;100031.36;;;29.25;72.44
42951;BME280;28592;51.064;17.192;2022-07-23T08:32:06;100033.73;;;29.53;74.66
42951;BME280;28592;51.064;17.192;2022-07-23T08:34:51;100042.05;;;29.68;72.93
42951;BME280;28592;51.064;17.192;2022-07-23T08:37:36;100031.52;;;29.96;71.33
42951;BME280;28592;51.064;17.192;2022-07-23T08:40:22;100028.78;;;29.96;71.53
42951;BME280;28592;51.064;17.192;2022-07-23T08:43:10;100024.34;;;30.52;71.65
42951;BME280;28592;51.064;17.192;2022-07-23T08:45:58;100021.38;;;30.79;67.81
42951;BME280;28592;51.064;17.192;2022-07-23T08:48:47;100021.38;;;30.79;68.09
42951;BME280;28592;51.064;17.192;2022-07-23T08:51:32;100015.03;;;31.48;69.70
42951;BME280;28592;51.064;17.192;2022-07-23T08:54:18;100010.14;;;31.35;66.19
42951;BME280;28592;51.064;17.192;2022-07-23T08:57:06;100001.59;;;31.57;67.04
42951;BME280;28592;51.064;17.192;2022-07-23T08:59:51;100014.73;;;31.65;66.91
42951;BME280;28592;51.064;17.192;2022-07-23T09:02:42;100011.32;;;32.03;65.56
42951;BME280;28592;51.064;17.192;2022-07-23T09:05:27;100001.51;;;31.87;66.07
42951;BME280;28592;51.064;17.192;2022-07-23T09:08:14;100017.13;;;31.86;66.00
42951;BME280;28592;51.064;17.192;2022-07-23T09:11:01;100005.46;;;31.41;65.86
42951;BME280;28592;51.064;17.192;2022-07-23T09:13:52;100007.09;;;31.52;66.09
42951;BME280;28592;51.064;17.192;2022-07-23T09:16:45;100013.12;;;31.54;68.00
42951;BME280;28592;51.064;17.192;2022-07-23T09:19:31;100008.42;;;31.59;67.51
42951;BME280;28592;51.064;17.192;2022-07-23T09:22:22;100001.42;;;32.07;63.17
42951;BME280;28592;51.064;17.192;2022-07-23T09:28:01;99994.40;;;31.86;64.41
42951;BME280;28592;51.064;17.192;2022-07-23T09:30:51;100000.44;;;32.37;65.40
42951;BME280;28592;51.064;17.192;2022-07-23T09:33:36;100006.70;;;32.47;62.29
42951;BME280;28592;51.064;17.192;2022-07-23T09:36:28;99995.19;;;32.45;62.18
42951;BME280;28592;51.064;17.192;2022-07-23T09:39:16;99987.05;;;33.02;60.22
42951;BME280;28592;51.064;17.192;2022-07-23T09:42:13;99983.44;;;33.07;58.56
42951;BME280;28592;51.064;17.192;2022-07-23T09:44:59;99976.31;;;33.06;58.82
42951;BME280;28592;51.064;17.192;2022-07-23T09:47:45;99980.36;;;32.80;61.33
42951;BME280;28592;51.064;17.192;2022-07-23T09:50:31;99980.61;;;32.88;59.86
42951;BME280;28592;51.064;17.192;2022-07-23T09:53:24;99980.59;;;32.06;62.41
42951;BME280;28592;51.064;17.192;2022-07-23T09:56:11;99980.59;;;32.06;62.27
42951;BME280;28592;51.064;17.192;2022-07-23T09:58:59;99977.23;;;32.14;62.50
42951;BME280;28592;51.064;17.192;2022-07-23T10:01:57;99972.32;;;32.11;62.44
42951;BME280;28592;51.064;17.192;2022-07-23T10:04:45;99985.72;;;32.61;58.90
42951;BME280;28592;51.064;17.192;2022-07-23T10:07:37;99986.84;;;32.60;58.94
42951;BME280;28592;51.064;17.192;2022-07-23T10:10:26;99985.84;;;31.92;60.88
42951;BME280;28592;51.064;17.192;2022-07-23T10:13:12;99993.70;;;31.40;60.07
42951;BME280;28592;51.064;17.192;2022-07-23T10:16:12;100003.27;;;31.48;60.51
42951;BME280;28592;51.064;17.192;2022-07-23T10:18:57;100002.11;;;31.64;59.53
42951;BME280;28592;51.064;17.192;2022-07-23T10:21:49;100018.63;;;31.24;60.74
42951;BME280;28592;51.064;17.192;2022-07-23T10:36:37;100031.81;;;27.46;75.69
42951;BME280;28592;51.064;17.192;2022-07-23T10:39:33;100030.39;;;27.43;75.41
42951;BME280;28592;51.064;17.192;2022-07-23T10:42:18;100029.42;;;26.99;76.69
42951;BME280;28592;51.064;17.192;2022-07-23T10:51:08;100039.95;;;25.83;85.47
42951;BME280;28592;51.064;17.192;2022-07-23T10:53:58;100058.42;;;25.35;89.44
42951;BME280;28592;51.064;17.192;2022-07-23T10:56:50;100072.43;;;25.55;89.35
42951;BME280;28592;51.064;17.192;2022-07-23T11:02:39;100108.67;;;24.38;100.00
42951;BME280;28592;51.064;17.192;2022-07-23T11:08:24;100119.19;;;23.73;100.00
42951;BME280;28592;51.064;17.192;2022-07-23T11:11:10;100147.50;;;22.60;100.00
42951;BME280;28592;51.064;17.192;2022-07-23T11:13:55;100143.95;;;22.59;100.00
42951;BME280;28592;51.064;17.192;2022-07-23T11:16:46;100155.91;;;22.25;100.00
42951;BME280;28592;51.064;17.192;2022-07-23T11:22:35;100143.68;;;22.23;100.00
42951;BME280;28592;51.064;17.192;2022-07-23T11:25:30;100159.69;;;22.11;100.00
42951;BME280;28592;51.064;17.192;2022-07-23T11:28:18;100153.45;;;22.11;100.00
42951;BME280;28592;51.064;17.192;2022-07-23T11:31:18;100122.02;;;22.36;100.00
42951;BME280;28592;51.064;17.192;2022-07-23T11:37:02;100084.13;;;22.49;100.00
42951;BME280;28592;51.064;17.192;2022-07-23T11:39:48;100072.39;;;22.75;100.00
42951;BME280;28592;51.064;17.192;2022-07-23T11:42:36;100076.22;;;22.92;100.00
42951;BME280;28592;51.064;17.192;2022-07-23T11:45:22;100065.41;;;22.92;100.00
42951;BME280;28592;51.064;17.192;2022-07-23T11:48:20;100081.83;;;23.15;100.00
42951;BME280;28592;51.064;17.192;2022-07-23T11:51:06;100078.44;;;23.26;100.00
42951;BME280;28592;51.064;17.192;2022-07-23T11:53:51;100081.81;;;22.90;100.00
42951;BME280;28592;51.064;17.192;2022-07-23T11:56:36;100081.95;;;23.02;100.00
42951;BME280;28592;51.064;17.192;2022-07-23T11:59:21;100052.60;;;22.81;100.00
42951;BME280;28592;51.064;17.192;2022-07-23T12:02:07;100056.33;;;22.80;100.00
42951;BME280;28592;51.064;17.192;2022-07-23T12:04:54;100031.03;;;22.74;100.00
42951;BME280;28592;51.064;17.192;2022-07-23T12:07:42;100044.59;;;22.92;100.00
42951;BME280;28592;51.064;17.192;2022-07-23T12:13:26;100050.86;;;23.78;100.00
42951;BME280;28592;51.064;17.192;2022-07-23T12:16:12;100047.55;;;23.76;100.00
42951;BME280;28592;51.064;17.192;2022-07-23T12:18:57;100028.55;;;24.00;100.00
42951;BME280;28592;51.064;17.192;2022-07-23T12:21:42;100035.94;;;24.23;100.00
42951;BME280;28592;51.064;17.192;2022-07-23T12:24:28;100060.95;;;24.07;100.00
42951;BME280;28592;51.064;17.192;2022-07-23T12:27:13;100053.87;;;24.06;100.00
42951;BME280;28592;51.064;17.192;2022-07-23T12:29:58;100065.65;;;24.30;100.00
42951;BME280;28592;51.064;17.192;2022-07-23T12:32:45;100067.85;;;24.51;100.00
42951;BME280;28592;51.064;17.192;2022-07-23T12:35:33;100087.68;;;24.63;100.00
42951;BME280;28592;51.064;17.192;2022-07-23T12:38:21;100084.94;;;24.81;100.00
42951;BME280;28592;51.064;17.192;2022-07-23T12:41:07;100090.09;;;25.12;100.00
42951;BME280;28592;51.064;17.192;2022-07-23T12:43:56;100085.07;;;25.50;100.00
42951;BME280;28592;51.064;17.192;2022-07-23T12:46:41;100089.66;;;25.49;100.00
42951;BME280;28592;51.064;17.192;2022-07-23T12:49:27;100081.26;;;26.09;100.00
42951;BME280;28592;51.064;17.192;2022-07-23T12:52:19;100076.42;;;26.39;100.00
42951;BME280;28592;51.064;17.192;2022-07-23T12:55:05;100072.88;;;26.38;100.00
42951;BME280;28592;51.064;17.192;2022-07-23T12:57:51;100059.74;;;26.91;100.00
42951;BME280;28592;51.064;17.192;2022-07-23T13:03:40;100034.28;;;26.97;100.00
42951;BME280;28592;51.064;17.192;2022-07-23T13:06:28;100036.92;;;27.42;100.00
42951;BME280;28592;51.064;17.192;2022-07-23T13:09:19;100032.27;;;27.59;100.00
42951;BME280;28592;51.064;17.192;2022-07-23T13:12:05;100027.88;;;27.58;100.00
42951;BME280;28592;51.064;17.192;2022-07-23T13:14:54;100033.31;;;27.96;100.00
42951;BME280;28592;51.064;17.192;2022-07-23T13:17:39;100037.80;;;28.29;100.00
42951;BME280;28592;51.064;17.192;2022-07-23T13:20:24;100046.38;;;28.64;100.00
42951;BME280;28592;51.064;17.192;2022-07-23T13:23:09;100043.50;;;28.49;100.00
42951;BME280;28592;51.064;17.192;2022-07-23T13:25:55;100043.50;;;28.49;100.00
42951;BME280;28592;51.064;17.192;2022-07-23T13:28:40;100046.12;;;28.97;100.00
42951;BME280;28592;51.064;17.192;2022-07-23T13:31:25;100053.86;;;28.78;100.00
42951;BME280;28592;51.064;17.192;2022-07-23T13:34:10;100058.65;;;28.93;100.00
42951;BME280;28592;51.064;17.192;2022-07-23T13:36:56;100054.70;;;28.79;100.00
42951;BME280;28592;51.064;17.192;2022-07-23T13:39:42;100053.45;;;28.91;100.00
42951;BME280;28592;51.064;17.192;2022-07-23T13:42:30;100053.20;;;29.25;94.30
42951;BME280;28592;51.064;17.192;2022-07-23T13:45:15;100052.39;;;29.24;94.21
42951;BME280;28592;51.064;17.192;2022-07-23T13:48:01;100039.02;;;29.28;94.70
42951;BME280;28592;51.064;17.192;2022-07-23T13:50:48;100035.41;;;29.17;95.36
42951;BME280;28592;51.064;17.192;2022-07-23T13:53:34;100046.12;;;28.97;96.44
42951;BME280;28592;51.064;17.192;2022-07-23T13:56:19;100044.48;;;28.96;96.56
42951;BME280;28592;51.064;17.192;2022-07-23T13:59:04;100054.36;;;29.02;94.83
42951;BME280;28592;51.064;17.192;2022-07-23T14:01:49;100047.27;;;29.01;94.82
42951;BME280;28592;51.064;17.192;2022-07-23T14:04:35;100043.13;;;28.98;93.61
42951;BME280;28592;51.064;17.192;2022-07-23T14:07:20;100044.94;;;30.03;91.54
42951;BME280;28592;51.064;17.192;2022-07-23T14:10:07;100042.88;;;30.40;88.82
42951;BME280;28592;51.064;17.192;2022-07-23T14:12:56;100040.98;;;30.40;89.24
42951;BME280;28592;51.064;17.192;2022-07-23T14:15:43;100014.53;;;31.06;87.44
42951;BME280;28592;51.064;17.192;2022-07-23T14:18:28;100019.73;;;31.08;87.53
42951;BME280;28592;51.064;17.192;2022-07-23T14:21:13;100022.15;;;30.49;86.18
42951;BME280;28592;51.064;17.192;2022-07-23T14:23:58;100027.63;;;30.49;86.63
42951;BME280;28592;51.064;17.192;2022-07-23T14:26:43;100015.88;;;30.68;84.99
42951;BME280;28592;51.064;17.192;2022-07-23T14:29:35;100026.27;;;30.72;82.39
42951;BME280;28592;51.064;17.192;2022-07-23T14:32:21;100032.02;;;30.70;82.42
42951;BME280;28592;51.064;17.192;2022-07-23T14:35:06;100032.76;;;30.35;88.96
42951;BME280;28592;51.064;17.192;2022-07-23T14:37:51;100029.23;;;30.35;88.76
42951;BME280;28592;51.064;17.192;2022-07-23T14:40:37;100035.88;;;29.97;82.68
42951;BME280;28592;51.064;17.192;2022-07-23T14:43:22;100028.48;;;29.93;82.51
42951;BME280;28592;51.064;17.192;2022-07-23T14:46:09;100036.47;;;29.58;84.08
42951;BME280;28592;51.064;17.192;2022-07-23T14:48:55;100047.03;;;29.39;86.81
42951;BME280;28592;51.064;17.192;2022-07-23T14:51:40;100038.84;;;29.39;86.85
42951;BME280;28592;51.064;17.192;2022-07-23T14:54:28;100035.97;;;29.19;88.98
42951;BME280;28592;51.064;17.192;2022-07-23T14:57:16;100039.23;;;29.21;91.67
42951;BME280;28592;51.064;17.192;2022-07-23T15:00:04;100038.44;;;29.21;91.88